createdAt,value
2017-08-22T00:00:14.748Z,0
2017-08-22T00:01:17.344Z,0
2017-08-22T00:02:19.858Z,0
2017-08-22T00:03:22.740Z,0
2017-08-22T00:04:25.421Z,0
2017-08-22T00:05:27.924Z,0
2017-08-22T00:06:30.804Z,0
2017-08-22T00:07:33.638Z,0
2017-08-22T00:08:36.836Z,0
2017-08-22T00:09:40.345Z,0
2017-08-22T00:10:43.472Z,0
2017-08-22T00:11:45.972Z,0
2017-08-22T00:12:48.546Z,0
2017-08-22T00:13:51.394Z,0
2017-08-22T00:14:53.909Z,0
2017-08-22T00:15:56.402Z,0
2017-08-22T00:16:59.606Z,0
2017-08-22T00:18:02.245Z,0
2017-08-22T00:19:05.077Z,0
2017-08-22T00:20:07.610Z,0
2017-08-22T00:21:10.134Z,0
2017-08-22T00:22:12.660Z,0
2017-08-22T00:23:16.179Z,0
2017-08-22T00:24:18.678Z,0
2017-08-22T00:25:21.198Z,0
2017-08-22T00:26:23.726Z,0
2017-08-22T00:27:26.666Z,0
2017-08-22T00:28:29.188Z,0
2017-08-22T00:29:32.039Z,0
2017-08-22T00:30:35.232Z,0
2017-08-22T00:31:38.155Z,0
2017-08-22T00:32:40.678Z,0
2017-08-22T00:33:43.535Z,0
2017-08-22T00:34:46.047Z,0
2017-08-22T00:35:48.543Z,0
2017-08-22T00:36:51.244Z,0
2017-08-22T00:37:54.440Z,0
2017-08-22T00:38:56.953Z,0
2017-08-22T00:39:59.474Z,0
2017-08-22T00:41:02.217Z,0
2017-08-22T00:42:05.071Z,0
2017-08-22T00:43:07.610Z,0
2017-08-22T00:44:10.460Z,0
2017-08-22T00:45:13.647Z,0
2017-08-22T00:46:16.834Z,0
2017-08-22T00:47:19.728Z,0
2017-08-22T00:48:22.922Z,0
2017-08-22T00:49:25.788Z,0
2017-08-22T00:50:28.958Z,0
2017-08-22T00:51:31.814Z,0
2017-08-22T00:52:34.684Z,0
2017-08-22T00:53:37.182Z,0
2017-08-22T00:54:39.701Z,0
2017-08-22T00:55:42.220Z,0
2017-08-22T00:56:44.757Z,0
2017-08-22T00:57:47.264Z,0
2017-08-22T00:58:49.807Z,0
2017-08-22T00:59:52.334Z,0
2017-08-22T01:00:55.169Z,0
2017-08-22T01:01:58.213Z,0
2017-08-22T01:03:00.721Z,0
2017-08-22T01:04:03.234Z,0
2017-08-22T01:05:06.102Z,0
2017-08-22T01:06:08.604Z,0
2017-08-22T01:07:11.102Z,0
2017-08-22T01:08:13.619Z,0
2017-08-22T01:09:16.483Z,0
2017-08-22T01:10:19.458Z,0
2017-08-22T01:11:22.091Z,0
2017-08-22T01:12:24.886Z,0
2017-08-22T01:13:28.024Z,0
2017-08-22T01:14:30.556Z,0
2017-08-22T01:15:33.411Z,0
2017-08-22T01:16:36.598Z,0
2017-08-22T01:17:39.117Z,0
2017-08-22T01:18:41.622Z,0
2017-08-22T01:19:44.473Z,0
2017-08-22T01:20:47.323Z,0
2017-08-22T01:21:50.507Z,0
2017-08-22T01:22:53.035Z,0
2017-08-22T01:23:55.542Z,0
2017-08-22T01:24:58.792Z,0
2017-08-22T01:26:02.019Z,0
2017-08-22T01:27:04.562Z,0
2017-08-22T01:28:07.073Z,0
2017-08-22T01:29:09.582Z,0
2017-08-22T01:30:12.096Z,0
2017-08-22T01:31:14.972Z,0
2017-08-22T01:32:17.831Z,0
2017-08-22T01:33:20.686Z,0
2017-08-22T01:34:23.188Z,0
2017-08-22T01:35:25.688Z,0
2017-08-22T01:36:28.204Z,0
2017-08-22T01:37:30.717Z,0
2017-08-22T01:38:33.233Z,0
2017-08-22T01:39:35.749Z,0
2017-08-22T01:40:38.599Z,0
2017-08-22T01:41:41.800Z,0
2017-08-22T01:42:44.307Z,0
2017-08-22T01:43:46.808Z,0
2017-08-22T01:44:49.670Z,0
2017-08-22T01:45:52.870Z,0
2017-08-22T01:46:55.704Z,0
2017-08-22T01:47:58.885Z,0
2017-08-22T01:49:01.740Z,0
2017-08-22T01:50:04.962Z,0
2017-08-22T01:51:08.224Z,0
2017-08-22T01:52:10.754Z,0
2017-08-22T01:53:13.246Z,0
2017-08-22T01:54:16.124Z,0
2017-08-22T01:55:18.638Z,0
2017-08-22T01:56:21.141Z,0
2017-08-22T01:57:24.329Z,0
2017-08-22T01:58:27.506Z,0
2017-08-22T01:59:30.336Z,0
2017-08-22T02:00:33.536Z,0
2017-08-22T02:01:36.722Z,0
2017-08-22T02:02:39.559Z,0
2017-08-22T02:03:42.076Z,0
2017-08-22T02:04:44.913Z,0
2017-08-22T02:05:47.426Z,0
2017-08-22T02:06:50.266Z,0
2017-08-22T02:07:52.774Z,0
2017-08-22T02:08:55.305Z,0
2017-08-22T02:09:58.163Z,0
2017-08-22T02:11:00.669Z,0
2017-08-22T02:12:03.526Z,0
2017-08-22T02:13:06.057Z,0
2017-08-22T02:14:08.585Z,0
2017-08-22T02:15:11.438Z,0
2017-08-22T02:16:15.293Z,0
2017-08-22T02:17:18.482Z,0
2017-08-22T02:18:21.357Z,0
2017-08-22T02:19:24.883Z,0
2017-08-22T02:20:27.373Z,0
2017-08-22T02:21:29.883Z,0
2017-08-22T02:22:32.720Z,0
2017-08-22T02:23:35.238Z,0
2017-08-22T02:24:37.771Z,0
2017-08-22T02:25:40.608Z,0
2017-08-22T02:26:44.136Z,0
2017-08-22T02:27:46.660Z,0
2017-08-22T02:28:49.182Z,0
2017-08-22T02:29:52.024Z,0
2017-08-22T02:30:54.555Z,0
2017-08-22T02:31:57.060Z,0
2017-08-22T02:33:00.271Z,0
2017-08-22T02:34:03.824Z,0
2017-08-22T02:35:06.682Z,0
2017-08-22T02:36:10.220Z,0
2017-08-22T02:37:12.739Z,0
2017-08-22T02:38:15.582Z,0
2017-08-22T02:39:18.095Z,0
2017-08-22T02:40:20.614Z,0
2017-08-22T02:41:23.123Z,0
2017-08-22T02:42:25.978Z,0
2017-08-22T02:43:29.206Z,0
2017-08-22T02:44:32.059Z,0
2017-08-22T02:45:34.912Z,0
2017-08-22T02:46:37.771Z,0
2017-08-22T02:47:40.286Z,0
2017-08-22T02:48:42.797Z,0
2017-08-22T02:49:45.659Z,0
2017-08-22T02:50:48.539Z,0
2017-08-22T02:51:51.732Z,0
2017-08-22T02:52:54.585Z,0
2017-08-22T02:53:57.780Z,0
2017-08-22T02:55:00.285Z,0
2017-08-22T02:56:03.827Z,0
2017-08-22T02:57:06.341Z,0
2017-08-22T02:58:09.179Z,0
2017-08-22T02:59:12.056Z,0
2017-08-22T03:00:14.907Z,0
2017-08-22T03:01:17.764Z,0
2017-08-22T03:02:20.610Z,0
2017-08-22T03:03:23.458Z,0
2017-08-22T03:04:26.291Z,0
2017-08-22T03:05:29.159Z,0
2017-08-22T03:06:31.680Z,0
2017-08-22T03:07:34.183Z,0
2017-08-22T03:08:36.688Z,0
2017-08-22T03:09:39.537Z,0
2017-08-22T03:10:42.729Z,0
2017-08-22T03:11:45.595Z,0
2017-08-22T03:12:48.447Z,0
2017-08-22T03:13:50.933Z,0
2017-08-22T03:14:53.441Z,0
2017-08-22T03:15:55.949Z,0
2017-08-22T03:16:59.157Z,0
2017-08-22T03:18:01.668Z,0
2017-08-22T03:19:04.522Z,0
2017-08-22T03:20:07.045Z,0
2017-08-22T03:21:09.555Z,0
2017-08-22T03:22:12.048Z,0
2017-08-22T03:23:14.574Z,0
2017-08-22T03:24:17.095Z,0
2017-08-22T03:25:19.954Z,0
2017-08-22T03:26:22.797Z,0
2017-08-22T03:27:25.307Z,0
2017-08-22T03:28:28.508Z,0
2017-08-22T03:29:31.718Z,0
2017-08-22T03:30:34.901Z,4
2017-08-22T03:31:38.469Z,4
2017-08-22T03:32:41.330Z,0
2017-08-22T03:33:44.520Z,4
2017-08-22T03:34:47.024Z,4
2017-08-22T03:35:49.856Z,8
2017-08-22T03:36:52.714Z,4
2017-08-22T03:37:55.553Z,8
2017-08-22T03:38:58.375Z,8
2017-08-22T03:40:00.895Z,8
2017-08-22T03:41:04.097Z,12
2017-08-22T03:42:07.604Z,16
2017-08-22T03:43:10.118Z,16
2017-08-22T03:44:13.632Z,16
2017-08-22T03:45:16.812Z,20
2017-08-22T03:46:19.672Z,24
2017-08-22T03:47:22.850Z,28
2017-08-22T03:48:25.702Z,36
2017-08-22T03:49:28.224Z,40
2017-08-22T03:50:30.741Z,44
2017-08-22T03:51:33.256Z,52
2017-08-22T03:52:36.445Z,60
2017-08-22T03:53:39.280Z,68
2017-08-22T03:54:42.131Z,80
2017-08-22T03:55:45.311Z,88
2017-08-22T03:56:47.791Z,100
2017-08-22T03:57:50.298Z,112
2017-08-22T03:58:52.820Z,124
2017-08-22T03:59:55.661Z,140
2017-08-22T04:00:58.842Z,148
2017-08-22T04:02:01.728Z,164
2017-08-22T04:03:04.908Z,180
2017-08-22T04:04:08.439Z,200
2017-08-22T04:05:11.962Z,224
2017-08-22T04:06:14.473Z,248
2017-08-22T04:07:17.324Z,276
2017-08-22T04:08:19.838Z,296
2017-08-22T04:09:22.668Z,324
2017-08-22T04:10:25.539Z,356
2017-08-22T04:11:28.043Z,384
2017-08-22T04:12:30.897Z,416
2017-08-22T04:13:34.093Z,444
2017-08-22T04:14:36.930Z,476
2017-08-22T04:15:39.450Z,512
2017-08-22T04:16:42.632Z,548
2017-08-22T04:17:45.141Z,580
2017-08-22T04:18:47.666Z,616
2017-08-22T04:19:50.871Z,656
2017-08-22T04:20:53.731Z,696
2017-08-22T04:21:56.230Z,740
2017-08-22T04:22:58.732Z,780
2017-08-22T04:24:01.591Z,824
2017-08-22T04:25:04.433Z,864
2017-08-22T04:26:07.262Z,908
2017-08-22T04:27:09.778Z,952
2017-08-22T04:28:12.313Z,996
2017-08-22T04:29:14.837Z,1044
2017-08-22T04:30:17.331Z,1100
2017-08-22T04:31:20.175Z,1160
2017-08-22T04:32:23.359Z,1216
2017-08-22T04:33:26.601Z,1280
2017-08-22T04:34:29.797Z,1324
2017-08-22T04:35:32.645Z,1356
2017-08-22T04:36:35.483Z,1384
2017-08-22T04:37:38.338Z,1432
2017-08-22T04:38:40.844Z,1488
2017-08-22T04:39:43.346Z,1532
2017-08-22T04:40:45.853Z,1592
2017-08-22T04:41:48.352Z,1656
2017-08-22T04:42:50.872Z,1704
2017-08-22T04:43:53.737Z,1756
2017-08-22T04:44:56.573Z,1824
2017-08-22T04:45:59.084Z,1904
2017-08-22T04:47:02.318Z,1964
2017-08-22T04:48:05.508Z,2004
2017-08-22T04:49:08.349Z,2044
2017-08-22T04:50:10.848Z,2084
2017-08-22T04:51:14.361Z,2096
2017-08-22T04:52:17.575Z,2116
2017-08-22T04:53:20.078Z,2144
2017-08-22T04:54:22.575Z,2180
2017-08-22T04:55:25.085Z,2216
2017-08-22T04:56:27.628Z,2252
2017-08-22T04:57:30.495Z,2300
2017-08-22T04:58:33.331Z,2356
2017-08-22T04:59:35.838Z,2408
2017-08-22T05:00:38.681Z,2464
2017-08-22T05:01:41.859Z,2528
2017-08-22T05:02:45.030Z,2584
2017-08-22T05:03:47.888Z,2588
2017-08-22T05:04:50.409Z,2544
2017-08-22T05:05:53.252Z,2580
2017-08-22T05:06:56.097Z,2668
2017-08-22T05:07:58.593Z,2776
2017-08-22T05:09:01.449Z,2896
2017-08-22T05:10:03.969Z,2996
2017-08-22T05:11:06.455Z,3136
2017-08-22T05:12:08.961Z,3296
2017-08-22T05:13:12.506Z,3476
2017-08-22T05:14:15.009Z,3616
2017-08-22T05:15:17.520Z,3736
2017-08-22T05:16:20.017Z,3848
2017-08-22T05:17:22.850Z,3924
2017-08-22T05:18:25.719Z,3988
2017-08-22T05:19:28.567Z,4060
2017-08-22T05:20:31.411Z,4152
2017-08-22T05:21:34.257Z,4264
2017-08-22T05:22:37.078Z,4392
2017-08-22T05:23:39.922Z,4488
2017-08-22T05:24:42.791Z,4620
2017-08-22T05:25:45.279Z,4800
2017-08-22T05:26:48.117Z,4916
2017-08-22T05:27:50.646Z,4988
2017-08-22T05:28:53.142Z,5140
2017-08-22T05:29:55.989Z,5320
2017-08-22T05:30:58.847Z,5416
2017-08-22T05:32:01.710Z,5556
2017-08-22T05:33:04.220Z,5692
2017-08-22T05:34:07.071Z,5832
2017-08-22T05:35:10.274Z,5984
2017-08-22T05:36:13.148Z,6136
2017-08-22T05:37:15.674Z,6260
2017-08-22T05:38:18.867Z,6404
2017-08-22T05:39:21.362Z,6576
2017-08-22T05:40:24.208Z,6680
2017-08-22T05:41:26.719Z,6644
2017-08-22T05:42:29.247Z,6368
2017-08-22T05:43:31.756Z,6212
2017-08-22T05:44:34.941Z,6124
2017-08-22T05:45:38.544Z,6136
2017-08-22T05:46:41.384Z,6320
2017-08-22T05:47:43.907Z,6484
2017-08-22T05:48:46.756Z,6664
2017-08-22T05:49:49.951Z,6924
2017-08-22T05:50:52.815Z,7140
2017-08-22T05:51:56.008Z,7336
2017-08-22T05:52:58.866Z,7828
2017-08-22T05:54:01.375Z,8512
2017-08-22T05:55:04.247Z,9088
2017-08-22T05:56:07.181Z,9196
2017-08-22T05:57:10.027Z,8884
2017-08-22T05:58:12.869Z,8592
2017-08-22T05:59:15.380Z,8604
2017-08-22T06:00:18.229Z,8652
2017-08-22T06:01:21.430Z,8380
2017-08-22T06:02:24.603Z,7964
2017-08-22T06:03:27.116Z,7964
2017-08-22T06:04:29.631Z,8428
2017-08-22T06:05:32.154Z,8612
2017-08-22T06:06:34.667Z,8496
2017-08-22T06:07:37.180Z,8412
2017-08-22T06:08:40.026Z,8156
2017-08-22T06:09:42.876Z,8068
2017-08-22T06:10:45.373Z,8128
2017-08-22T06:11:48.580Z,8200
2017-08-22T06:12:51.449Z,8100
2017-08-22T06:13:53.963Z,7960
2017-08-22T06:14:56.807Z,7864
2017-08-22T06:15:59.328Z,7876
2017-08-22T06:17:02.839Z,7984
2017-08-22T06:18:05.353Z,8376
2017-08-22T06:19:07.859Z,8700
2017-08-22T06:20:10.730Z,8804
2017-08-22T06:21:13.248Z,8852
2017-08-22T06:22:16.116Z,8856
2017-08-22T06:23:19.989Z,8880
2017-08-22T06:24:22.500Z,8984
2017-08-22T06:25:25.013Z,9080
2017-08-22T06:26:28.075Z,9232
2017-08-22T06:27:30.597Z,9416
2017-08-22T06:28:33.763Z,9612
2017-08-22T06:29:36.281Z,9792
2017-08-22T06:30:39.138Z,9884
2017-08-22T06:31:41.652Z,10040
2017-08-22T06:32:44.831Z,10152
2017-08-22T06:33:47.727Z,10204
2017-08-22T06:34:50.935Z,10096
2017-08-22T06:35:53.789Z,10160
2017-08-22T06:36:56.272Z,10324
2017-08-22T06:37:58.808Z,10684
2017-08-22T06:39:01.317Z,11312
2017-08-22T06:40:03.826Z,12348
2017-08-22T06:41:06.671Z,13944
2017-08-22T06:43:56.769Z,15452
2017-08-22T06:44:59.201Z,13940
2017-08-22T06:46:01.610Z,13092
2017-08-22T06:47:05.045Z,12644
2017-08-22T06:48:07.456Z,12304
2017-08-22T06:49:10.213Z,11964
2017-08-22T06:50:12.970Z,11836
2017-08-22T06:51:15.728Z,11432
2017-08-22T06:52:18.135Z,11088
2017-08-22T06:53:20.563Z,11120
2017-08-22T06:54:22.978Z,11328
2017-08-22T06:55:25.386Z,11492
2017-08-22T06:56:28.513Z,11684
2017-08-22T06:57:31.953Z,11984
2017-08-22T06:58:34.704Z,12508
2017-08-22T06:59:37.113Z,13124
2017-08-22T07:00:39.533Z,13980
2017-08-22T07:01:41.951Z,15244
2017-08-22T07:02:44.366Z,16508
2017-08-22T07:03:46.822Z,17356
2017-08-22T07:04:49.240Z,17708
2017-08-22T07:05:51.988Z,18000
2017-08-22T07:06:54.408Z,18088
2017-08-22T07:07:56.834Z,18036
2017-08-22T07:08:59.260Z,17624
2017-08-22T07:10:02.067Z,17572
2017-08-22T07:11:05.191Z,17724
2017-08-22T07:12:07.606Z,18004
2017-08-22T07:13:10.385Z,18096
2017-08-22T07:14:13.144Z,18912
2017-08-22T07:15:15.925Z,19200
2017-08-22T07:16:18.354Z,19552
2017-08-22T07:17:20.837Z,19552
2017-08-22T07:18:23.599Z,19392
2017-08-22T07:19:26.364Z,19296
2017-08-22T07:20:28.787Z,18688
2017-08-22T07:21:31.542Z,17152
2017-08-22T07:22:33.990Z,15696
2017-08-22T07:23:36.415Z,14400
2017-08-22T07:24:38.857Z,13256
2017-08-22T07:25:41.329Z,12088
2017-08-22T07:26:43.745Z,11124
2017-08-22T07:27:46.855Z,10428
2017-08-22T07:28:49.622Z,10268
2017-08-22T07:29:52.053Z,10484
2017-08-22T07:30:54.478Z,10628
2017-08-22T07:31:57.253Z,10804
2017-08-22T07:32:59.685Z,11180
2017-08-22T07:34:02.465Z,11636
2017-08-22T07:35:05.220Z,12056
2017-08-22T07:36:07.675Z,12508
2017-08-22T07:37:10.419Z,13048
2017-08-22T07:38:12.868Z,13540
2017-08-22T07:39:15.317Z,13968
2017-08-22T07:40:18.078Z,14364
2017-08-22T07:41:21.188Z,14764
2017-08-22T07:42:23.981Z,15388
2017-08-22T07:43:26.406Z,16112
2017-08-22T07:44:28.826Z,17004
2017-08-22T07:45:31.591Z,17584
2017-08-22T07:46:34.682Z,17952
2017-08-22T07:47:37.129Z,18220
2017-08-22T07:48:39.559Z,18784
2017-08-22T07:49:41.981Z,18976
2017-08-22T07:50:44.761Z,18816
2017-08-22T07:51:47.180Z,17980
2017-08-22T07:52:49.949Z,16452
2017-08-22T07:53:52.412Z,14368
2017-08-22T07:54:55.171Z,12136
2017-08-22T07:55:57.619Z,10756
2017-08-22T07:57:00.057Z,10948
2017-08-22T07:58:03.146Z,12168
2017-08-22T07:59:05.901Z,12884
2017-08-22T08:00:08.681Z,13216
2017-08-22T08:01:11.819Z,13644
2017-08-22T08:02:14.255Z,14300
2017-08-22T08:03:17.039Z,15228
2017-08-22T08:04:19.466Z,16120
2017-08-22T08:05:21.914Z,16952
2017-08-22T08:06:24.370Z,17796
2017-08-22T08:07:27.142Z,18720
2017-08-22T08:08:29.894Z,19392
2017-08-22T08:09:33.002Z,20096
2017-08-22T08:10:35.440Z,20608
2017-08-22T08:11:37.894Z,20960
2017-08-22T08:12:40.687Z,21120
2017-08-22T08:13:43.480Z,21472
2017-08-22T08:14:46.244Z,22112
2017-08-22T08:15:48.683Z,22528
2017-08-22T08:16:51.457Z,22944
2017-08-22T08:17:53.867Z,23648
2017-08-22T08:18:56.291Z,25120
2017-08-22T08:19:58.713Z,27872
2017-08-22T08:21:01.229Z,30528
2017-08-22T08:22:04.020Z,32192
2017-08-22T08:23:07.155Z,33440
2017-08-22T08:24:09.910Z,40128
2017-08-22T08:25:12.389Z,36000
2017-08-22T08:26:14.807Z,38176
2017-08-22T08:27:17.251Z,39584
2017-08-22T08:28:20.054Z,47456
2017-08-22T08:29:22.480Z,41408
2017-08-22T08:30:24.903Z,44800
2017-08-22T08:31:27.318Z,49920
2017-08-22T08:32:29.756Z,53920
2017-08-22T08:33:32.847Z,55456
2017-08-22T08:34:35.286Z,62848
2017-08-22T08:35:37.723Z,51104
2017-08-22T08:36:40.149Z,45952
2017-08-22T08:37:42.596Z,50176
2017-08-22T08:38:45.369Z,63552
2017-08-22T08:39:48.169Z,69632
2017-08-22T08:40:50.999Z,63904
2017-08-22T08:41:53.460Z,63680
2017-08-22T08:42:55.930Z,62912
2017-08-22T08:43:58.764Z,90752
2017-08-22T08:45:02.613Z,100320
2017-08-22T08:46:05.119Z,93536
2017-08-22T08:47:07.915Z,64288
2017-08-22T08:48:11.014Z,64096
2017-08-22T08:49:14.109Z,80256
2017-08-22T08:50:16.929Z,150560
2017-08-22T08:51:19.347Z,128320
2017-08-22T08:52:21.781Z,78016
2017-08-22T08:53:24.210Z,102240
2017-08-22T08:54:26.971Z,99456
2017-08-22T08:55:29.729Z,101408
2017-08-22T08:56:32.241Z,103520
2017-08-22T08:57:34.717Z,96544
2017-08-22T08:58:37.137Z,97632
2017-08-22T08:59:39.563Z,110752
2017-08-22T09:00:41.997Z,122624
2017-08-22T09:01:44.773Z,132960
2017-08-22T09:02:47.570Z,136096
2017-08-22T09:03:50.011Z,75584
2017-08-22T09:04:52.758Z,70816
2017-08-22T09:05:55.866Z,62112
2017-08-22T09:06:58.638Z,102144
2017-08-22T09:08:01.066Z,74688
2017-08-22T09:09:04.212Z,94944
2017-08-22T09:10:07.424Z,80608
2017-08-22T09:11:09.837Z,70272
2017-08-22T09:12:12.609Z,83936
2017-08-22T09:13:15.365Z,86560
2017-08-22T09:14:18.128Z,72736
2017-08-22T09:15:21.014Z,54048
2017-08-22T09:16:23.791Z,47104
2017-08-22T09:17:26.547Z,134912
2017-08-22T09:18:28.982Z,77376
2017-08-22T09:19:31.743Z,55424
2017-08-22T09:20:34.531Z,52256
2017-08-22T09:21:37.315Z,46944
2017-08-22T09:22:40.076Z,45440
2017-08-22T09:23:42.509Z,40672
2017-08-22T09:24:44.939Z,36128
2017-08-22T09:25:47.359Z,38112
2017-08-22T09:26:49.789Z,47808
2017-08-22T09:27:52.220Z,62784
2017-08-22T09:28:54.643Z,69376
2017-08-22T09:29:57.403Z,97056
2017-08-22T09:30:59.835Z,74944
2017-08-22T09:32:02.275Z,46752
2017-08-22T09:33:05.743Z,132256
2017-08-22T09:34:08.233Z,42560
2017-08-22T09:35:10.657Z,39008
2017-08-22T09:36:13.441Z,52416
2017-08-22T09:37:15.888Z,58784
2017-08-22T09:38:18.337Z,54720
2017-08-22T09:39:21.140Z,46304
2017-08-22T09:40:23.651Z,37344
2017-08-22T09:41:26.635Z,35200
2017-08-22T09:42:29.095Z,125888
2017-08-22T09:43:31.666Z,121312
2017-08-22T09:44:34.448Z,40256
2017-08-22T09:45:37.201Z,30752
2017-08-22T09:46:39.985Z,29952
2017-08-22T09:47:42.758Z,108576
2017-08-22T09:48:45.180Z,100928
2017-08-22T09:49:47.965Z,105760
2017-08-22T09:50:50.730Z,110080
2017-08-22T09:51:53.157Z,114592
2017-08-22T09:52:55.581Z,117344
2017-08-22T09:53:58.369Z,116096
2017-08-22T09:55:01.177Z,118624
2017-08-22T09:56:03.956Z,116704
2017-08-22T09:57:06.719Z,112832
2017-08-22T09:58:09.168Z,87008
2017-08-22T09:59:11.602Z,120672
2017-08-22T10:00:14.729Z,124064
2017-08-22T10:01:17.533Z,104448
2017-08-22T10:02:20.683Z,40224
2017-08-22T10:03:23.100Z,32416
2017-08-22T10:04:25.549Z,27616
2017-08-22T10:05:28.323Z,24928
2017-08-22T10:06:31.091Z,23520
2017-08-22T10:07:33.862Z,24896
2017-08-22T10:08:36.619Z,28864
2017-08-22T10:09:39.396Z,38752
2017-08-22T10:10:41.845Z,43648
2017-08-22T10:11:44.606Z,104352
2017-08-22T10:12:47.044Z,50880
2017-08-22T10:13:49.469Z,44224
2017-08-22T10:14:52.245Z,42272
2017-08-22T10:15:55.016Z,43648
2017-08-22T10:16:57.445Z,47808
2017-08-22T10:18:00.206Z,80640
2017-08-22T10:19:02.978Z,109888
2017-08-22T10:20:06.208Z,77184
2017-08-22T10:21:08.984Z,136000
2017-08-22T10:22:12.438Z,133088
2017-08-22T10:23:14.864Z,134560
2017-08-22T10:24:17.631Z,129632
2017-08-22T10:25:20.407Z,125792
2017-08-22T10:26:23.178Z,135968
2017-08-22T10:27:25.965Z,144416
2017-08-22T10:28:28.722Z,137952
2017-08-22T10:29:31.164Z,135520
2017-08-22T10:30:33.596Z,128128
2017-08-22T10:31:36.370Z,31968
2017-08-22T10:32:38.797Z,28096
2017-08-22T10:33:41.918Z,27360
2017-08-22T10:34:45.023Z,27328
2017-08-22T10:35:48.139Z,28288
2017-08-22T10:36:50.563Z,36000
2017-08-22T10:37:52.990Z,97408
2017-08-22T10:38:55.428Z,38816
2017-08-22T10:39:57.872Z,43904
2017-08-22T10:41:00.641Z,66720
2017-08-22T10:42:03.751Z,126336
2017-08-22T10:43:06.522Z,130080
2017-08-22T10:44:08.948Z,131296
2017-08-22T10:45:11.730Z,128032
2017-08-22T10:46:14.497Z,126016
2017-08-22T10:47:16.928Z,126816
2017-08-22T10:48:19.369Z,122080
2017-08-22T10:49:22.130Z,118560
2017-08-22T10:50:25.266Z,123104
2017-08-22T10:51:28.384Z,121600
2017-08-22T10:52:30.821Z,61408
2017-08-22T10:53:33.264Z,32960
2017-08-22T10:54:36.384Z,31520
2017-08-22T10:55:39.140Z,68448
2017-08-22T10:56:41.580Z,68960
2017-08-22T10:57:44.372Z,116512
2017-08-22T10:58:46.805Z,118656
2017-08-22T10:59:49.586Z,121536
2017-08-22T11:00:53.047Z,32192
2017-08-22T11:01:56.148Z,34816
2017-08-22T11:02:59.294Z,124192
2017-08-22T11:04:02.413Z,80160
2017-08-22T11:05:05.519Z,123360
2017-08-22T11:06:07.964Z,112352
2017-08-22T11:07:10.458Z,68672
2017-08-22T11:08:12.892Z,131296
2017-08-22T11:09:15.335Z,120992
2017-08-22T11:10:18.098Z,111968
2017-08-22T11:11:20.537Z,115264
2017-08-22T11:12:23.323Z,112928
2017-08-22T11:13:25.777Z,112352
2017-08-22T11:14:28.210Z,119936
2017-08-22T11:15:30.991Z,120704
2017-08-22T11:16:33.415Z,113696
2017-08-22T11:17:36.189Z,107360
2017-08-22T11:18:38.960Z,108288
2017-08-22T11:19:41.383Z,115200
2017-08-22T11:20:44.164Z,122816
2017-08-22T11:21:47.317Z,124192
2017-08-22T11:22:49.745Z,55936
2017-08-22T11:23:52.527Z,37824
2017-08-22T11:24:54.956Z,31968
2017-08-22T11:25:57.401Z,27200
2017-08-22T11:26:59.819Z,22528
2017-08-22T11:28:02.258Z,18528
2017-08-22T11:29:05.029Z,16480
2017-08-22T11:30:07.803Z,15972
2017-08-22T11:31:10.579Z,16772
2017-08-22T11:32:14.025Z,18016
2017-08-22T11:33:16.448Z,18272
2017-08-22T11:34:19.252Z,19392
2017-08-22T11:35:21.685Z,21280
2017-08-22T11:36:24.777Z,23840
2017-08-22T11:37:28.611Z,30112
2017-08-22T11:38:31.504Z,37184
2017-08-22T11:39:34.613Z,35904
2017-08-22T11:40:37.038Z,50752
2017-08-22T11:41:39.476Z,51360
2017-08-22T11:42:41.917Z,39584
2017-08-22T11:43:44.353Z,61600
2017-08-22T11:44:46.773Z,39712
2017-08-22T11:45:49.546Z,53952
2017-08-22T11:46:52.313Z,38112
2017-08-22T11:47:55.433Z,58304
2017-08-22T11:48:57.864Z,41856
2017-08-22T11:50:00.981Z,78176
2017-08-22T11:51:03.744Z,98720
2017-08-22T11:52:06.513Z,96640
2017-08-22T11:53:09.288Z,37248
2017-08-22T11:54:11.737Z,33952
2017-08-22T11:55:14.152Z,31200
2017-08-22T11:56:16.580Z,31872
2017-08-22T11:57:19.378Z,42784
2017-08-22T11:58:21.861Z,96128
2017-08-22T11:59:24.640Z,99488
2017-08-22T12:00:28.321Z,99264
2017-08-22T12:01:31.101Z,100256
2017-08-22T12:02:33.864Z,106976
2017-08-22T12:03:36.969Z,110400
2017-08-22T12:04:39.401Z,80928
2017-08-22T12:05:42.850Z,64416
2017-08-22T12:06:45.650Z,36064
2017-08-22T12:07:48.087Z,29792
2017-08-22T12:08:50.524Z,25920
2017-08-22T12:09:53.313Z,23456
2017-08-22T12:10:55.732Z,21984
2017-08-22T12:11:58.519Z,21184
2017-08-22T12:13:00.955Z,19840
2017-08-22T12:14:04.399Z,19168
2017-08-22T12:15:06.850Z,18560
2017-08-22T12:16:09.294Z,17608
2017-08-22T12:17:12.047Z,16392
2017-08-22T12:18:14.486Z,14852
2017-08-22T12:19:16.912Z,13532
2017-08-22T12:20:19.702Z,12804
2017-08-22T12:21:22.470Z,12972
2017-08-22T12:22:25.908Z,14276
2017-08-22T12:23:28.353Z,16172
2017-08-22T12:24:30.777Z,18944
2017-08-22T12:25:33.216Z,21824
2017-08-22T12:26:36.345Z,24224
2017-08-22T12:27:38.990Z,24800
2017-08-22T12:28:41.718Z,25312
2017-08-22T12:29:44.486Z,25216
2017-08-22T12:30:47.253Z,31104
2017-08-22T12:31:49.725Z,21056
2017-08-22T12:32:52.285Z,20128
2017-08-22T12:33:54.717Z,18592
2017-08-22T12:34:57.825Z,17056
2017-08-22T12:36:00.590Z,16596
2017-08-22T12:37:03.370Z,17212
2017-08-22T12:38:05.789Z,18976
2017-08-22T12:39:08.489Z,20576
2017-08-22T12:40:11.584Z,22816
2017-08-22T12:41:14.002Z,24992
2017-08-22T12:42:17.093Z,27392
2017-08-22T12:43:19.881Z,30048
2017-08-22T12:44:23.005Z,57216
2017-08-22T12:45:25.439Z,36000
2017-08-22T12:46:28.255Z,44448
2017-08-22T12:47:30.686Z,69792
2017-08-22T12:48:33.454Z,50048
2017-08-22T12:49:36.218Z,51392
2017-08-22T12:50:39.325Z,72384
2017-08-22T12:51:41.746Z,89472
2017-08-22T12:52:44.847Z,85152
2017-08-22T12:53:47.272Z,94592
2017-08-22T12:54:50.604Z,101504
2017-08-22T12:55:53.366Z,101856
2017-08-22T12:56:55.806Z,100608
2017-08-22T12:57:58.563Z,99488
2017-08-22T12:59:01.325Z,47776
2017-08-22T13:00:04.453Z,61056
2017-08-22T13:01:07.239Z,42560
2017-08-22T13:02:09.667Z,32096
2017-08-22T13:03:12.092Z,30048
2017-08-22T13:04:14.872Z,27968
2017-08-22T13:05:17.529Z,26944
2017-08-22T13:06:19.968Z,25760
2017-08-22T13:07:22.720Z,26240
2017-08-22T13:08:25.822Z,31744
2017-08-22T13:09:28.580Z,27488
2017-08-22T13:10:31.347Z,26080
2017-08-22T13:11:35.669Z,25888
2017-08-22T13:12:38.434Z,25376
2017-08-22T13:13:40.874Z,24928
2017-08-22T13:14:43.646Z,25280
2017-08-22T13:15:46.076Z,26752
2017-08-22T13:16:48.840Z,30912
2017-08-22T13:17:51.947Z,57248
2017-08-22T13:18:55.414Z,32608
2017-08-22T13:19:58.191Z,30976
2017-08-22T13:21:01.003Z,33024
2017-08-22T13:22:03.781Z,36160
2017-08-22T13:23:06.203Z,36768
2017-08-22T13:24:08.983Z,35488
2017-08-22T13:25:12.447Z,37728
2017-08-22T13:26:15.217Z,41504
2017-08-22T13:27:18.316Z,36544
2017-08-22T13:28:21.085Z,39104
2017-08-22T13:29:23.508Z,75872
2017-08-22T13:30:27.303Z,40544
2017-08-22T13:31:29.729Z,38752
2017-08-22T13:32:33.183Z,60800
2017-08-22T13:33:35.964Z,84000
2017-08-22T13:34:38.384Z,76768
2017-08-22T13:35:41.174Z,71680
2017-08-22T13:36:43.939Z,73472
2017-08-22T13:37:46.372Z,28608
2017-08-22T13:38:49.125Z,22784
2017-08-22T13:39:51.557Z,19584
2017-08-22T13:40:53.980Z,18380
2017-08-22T13:41:56.401Z,19360
2017-08-22T13:42:58.852Z,20896
2017-08-22T13:44:01.309Z,23552
2017-08-22T13:45:05.088Z,25504
2017-08-22T13:46:07.926Z,23264
2017-08-22T13:47:10.691Z,56192
2017-08-22T13:48:14.152Z,27488
2017-08-22T13:49:16.587Z,27520
2017-08-22T13:50:19.706Z,29344
2017-08-22T13:51:22.137Z,34080
2017-08-22T13:52:24.574Z,38112
2017-08-22T13:53:27.001Z,33632
2017-08-22T13:54:29.781Z,29792
2017-08-22T13:55:32.226Z,27040
2017-08-22T13:56:34.997Z,24928
2017-08-22T13:57:37.431Z,23552
2017-08-22T13:58:40.201Z,22880
2017-08-22T13:59:42.627Z,22848
2017-08-22T14:00:45.407Z,28128
2017-08-22T14:01:48.174Z,25312
2017-08-22T14:02:50.947Z,25728